Date,TemperatureHighF,TemperatureAvgF,TemperatureLowF,DewpointHighF,DewpointAvgF,DewpointLowF,HumidityHigh,HumidityAvg,HumidityLow,PressureMaxIn,PressureMinIn,WindSpeedMaxMPH,WindSpeedAvgMPH,GustSpeedMaxMPH,PrecipitationSumIn
2013-2-1,18.0,4.9,-9.0,12.0,-1.1,-15.0,87,76,66,0.00,40.00,20,9,23,0.00
2013-2-2,34.0,19.3,11.0,32.0,15.1,7.0,97,83,69,0.00,40.00,38,12,50,0.00
2013-2-3,33.0,20.5,7.0,27.0,15.8,5.0,93,82,63,0.00,40.00,23,10,29,0.00
2013-2-4,22.0,16.7,9.0,19.0,12.7,5.0,95,84,66,0.00,40.00,20,10,24,0.00
2013-2-5,37.0,28.5,20.0,30.0,25.4,19.0,97,89,75,0.00,40.00,24,10,29,0.00
2013-2-6,42.0,32.8,22.0,34.0,29.7,21.0,98,88,68,0.00,40.00,24,10,30,0.00
2013-2-7,34.0,26.0,22.0,34.0,24.7,21.0,99,95,90,0.00,40.00,18,13,23,0.00
2013-2-8,31.0,23.8,20.0,25.0,21.9,19.0,99,93,77,0.00,40.00,24,13,30,0.00
2013-2-9,43.0,35.0,25.0,34.0,31.3,25.0,99,87,65,0.00,40.00,28,17,34,0.00
2013-2-10,34.0,30.6,26.0,34.0,29.6,25.0,99,97,89,0.00,40.00,30,19,37,0.01
2013-2-11,27.0,22.3,20.0,25.0,18.9,16.0,95,86,78,0.00,40.00,32,20,44,0.00
2013-2-12,34.0,24.1,17.0,23.0,19.2,16.0,95,83,58,0.00,40.00,15,8,19,0.00
2013-2-13,41.0,31.7,18.0,34.0,27.8,18.0,99,86,69,0.00,40.00,20,10,24,0.00
2013-2-14,35.0,24.7,11.0,32.0,20.6,7.0,99,84,59,0.00,40.00,26,16,33,0.00
2013-2-15,20.0,13.4,9.0,14.0,9.4,5.0,93,84,72,0.00,40.00,13,6,17,0.00
2013-2-16,35.0,21.7,8.0,28.0,18.6,7.0,98,88,65,0.00,40.00,12,7,15,0.00
2013-2-17,43.0,32.3,21.0,34.0,27.8,21.0,99,84,65,0.00,40.00,26,16,34,0.00
2013-2-18,35.0,22.9,8.0,34.0,19.7,3.0,95,86,76,0.00,40.00,35,24,44,0.00
2013-2-19,9.0,2.7,-3.0,5.0,-2.7,-8.0,86,78,71,0.00,40.00,32,20,39,0.00
2013-2-20,22.0,8.0,-5.0,10.0,0.7,-9.0,83,72,51,0.00,40.00,15,9,20,0.00
2013-2-21,22.0,16.1,11.0,16.0,11.9,9.0,99,84,60,0.00,40.00,20,13,28,0.00
2013-2-22,22.0,17.5,10.0,21.0,16.7,9.0,99,96,89,0.00,40.00,17,11,23,0.00
2013-2-23,27.0,10.3,-7.0,23.0,8.7,-8.0,97,93,81,0.00,40.00,9,3,11,0.00
2013-2-24,27.0,20.1,6.0,27.0,19.1,5.0,99,97,90,0.00,40.00,9,4,12,0.00
2013-2-25,27.0,24.6,19.0,27.0,23.7,19.0,99,96,88,0.00,40.00,9,4,13,0.00
2013-2-26,30.0,23.6,18.0,28.0,22.8,18.0,99,97,90,0.00,40.00,19,11,24,0.00
2013-2-27,33.0,25.3,19.0,25.0,20.4,16.0,98,83,62,0.00,40.00,28,19,35,0.00
2013-2-28,26.0,23.3,18.0,23.0,21.4,18.0,98,93,85,0.00,40.00,19,12,26,0.00